SKBO

El Dorado International Airport

Bogota, Colombia
TAF SKBO 171100Z 1712/1812 04005KT 9999 SCT020 SCT080 TEMPO 1713/1715 8000 DZ BKN017 BECMG 1715/1717 13012KT BKN023 TX20/1719Z TN08/1811Z
Issued Valid From Valid To
Aug-17 @ 11:00 UTC
(4 hours ago)
Aug-17 @ 12:00 UTC
(3 hours ago)
Aug-18 @ 12:00 UTC
(in 21 hours)
Aug-17 @ 12:00 to Aug-17 @ 15:00
TAF SKBO 171100Z 1712/1812 04005KT 9999 SCT020 SCT080
Wind Visibility Clouds
40° at 5 knots 10,000+ meters
  • Scattered at 2,000' AGL
  • Scattered at 8,000' AGL
Temporary Aug-17 @ 13:00 to Aug-17 @ 15:00
TEMPO 1713/1715 8000 DZ BKN017
Visibility Clouds Conditions
7,998 meters
  • Broken at 1,700' AGL
  • Drizzle
Becoming Aug-17 @ 15:00 to Aug-18 @ 12:00
BECMG 1715/1717 13012KT BKN023 TX20/1719Z TN08/1811Z
Wind Visibility Clouds
130° at 12 knots 10,000+ meters
  • Broken at 2,300' AGL
TAF SKBO 171100Z 1712/1812 04005KT 9999 SCT020 SCT080 TEMPO 1713/1715 8000 DZ BKN017 BECMG 1715/1717 13012KT BKN023 TX20/1719Z TN08/1811Z
Issued Aug-17 @ 11:00 UTC
(4 hours ago)
Valid From Aug-17 @ 12:00 UTC
(3 hours ago)
Valid To Aug-18 @ 12:00 UTC
(in 21 hours)
Aug-17 @ 12:00 - Aug-17 @ 15:00
Wind Visibility
40° at 5 knots 10,000+ meters
Clouds
  • Scattered at 2,000' AGL
  • Scattered at 8,000' AGL
Temporary Aug-17 @ 13:00 - Aug-17 @ 15:00
Clouds
  • Broken at 1,700' AGL
Conditions
  • Drizzle
Becoming Aug-17 @ 15:00 - Aug-18 @ 12:00
Wind Visibility
130° at 12 knots 10,000+ meters
Clouds
  • Broken at 2,300' AGL